createdAt,value
2017-04-22T00:00:09.114Z,8.35
2017-04-22T00:01:07.551Z,8.33
2017-04-22T00:02:06.789Z,8.02
2017-04-22T00:03:05.322Z,8.37
2017-04-22T00:04:04.486Z,10.43
2017-04-22T00:05:02.978Z,9.22
2017-04-22T00:06:04.587Z,9.88
2017-04-22T00:07:03.156Z,9.87
2017-04-22T00:08:01.604Z,9.97
2017-04-22T00:09:00.021Z,9.63
2017-04-22T00:09:58.445Z,9.95
2017-04-22T00:10:57.599Z,9.45
2017-04-22T00:11:56.855Z,10.63
2017-04-22T00:12:55.265Z,9.03
2017-04-22T00:13:53.757Z,9.33
2017-04-22T00:14:52.245Z,10.15
2017-04-22T00:15:51.048Z,9.50
2017-04-22T00:16:49.525Z,9.50
2017-04-22T00:17:47.981Z,9.53
2017-04-22T00:18:46.404Z,9.32
2017-04-22T00:19:44.979Z,8.75
2017-04-22T00:20:43.845Z,10.47
2017-04-22T00:21:43.062Z,9.53
2017-04-22T00:22:41.488Z,9.65
2017-04-22T00:23:40.710Z,9.18
2017-04-22T00:24:39.875Z,9.30
2017-04-22T00:25:38.323Z,9.65
2017-04-22T00:26:37.540Z,9.28
2017-04-22T00:27:36.762Z,9.95
2017-04-22T00:28:35.216Z,9.37
2017-04-22T00:29:33.988Z,9.72
2017-04-22T00:30:32.402Z,9.48
2017-04-22T00:31:30.887Z,9.70
2017-04-22T00:32:29.347Z,9.30
2017-04-22T00:33:27.819Z,9.33
2017-04-22T00:34:26.294Z,8.78
2017-04-22T00:35:24.705Z,8.95
2017-04-22T00:36:23.618Z,8.85
2017-04-22T00:37:22.048Z,9.80
2017-04-22T00:38:20.497Z,9.88
2017-04-22T00:39:19.733Z,9.80
2017-04-22T00:40:18.182Z,8.52
2017-04-22T00:41:16.603Z,8.73
2017-04-22T00:42:15.035Z,8.83
2017-04-22T00:43:13.468Z,9.57
2017-04-22T00:44:12.745Z,8.80
2017-04-22T00:45:11.238Z,8.85
2017-04-22T00:46:10.167Z,9.47
2017-04-22T00:47:08.629Z,10.37
2017-04-22T00:48:07.115Z,9.63
2017-04-22T00:49:05.556Z,9.25
2017-04-22T00:50:04.045Z,9.17
2017-04-22T00:51:02.590Z,8.58
2017-04-22T00:52:01.087Z,8.75
2017-04-22T00:52:59.534Z,8.68
2017-04-22T00:53:57.999Z,7.67
2017-04-22T00:54:56.520Z,8.55
2017-04-22T00:55:55.117Z,8.98
2017-04-22T00:56:54.336Z,8.02
2017-04-22T00:57:52.743Z,8.45
2017-04-22T00:58:51.224Z,8.45
2017-04-22T00:59:59.252Z,8.20
2017-04-22T01:00:58.437Z,9.08
2017-04-22T01:01:57.661Z,8.43
2017-04-22T01:02:56.892Z,8.35
2017-04-22T01:03:55.411Z,7.48
2017-04-22T01:04:53.886Z,8.27
2017-04-22T01:05:52.394Z,8.83
2017-04-22T01:06:50.872Z,9.13
2017-04-22T01:07:49.337Z,8.42
2017-04-22T01:08:47.795Z,9.55
2017-04-22T01:09:46.278Z,9.50
2017-04-22T01:10:44.881Z,9.52
2017-04-22T01:11:44.105Z,8.67
2017-04-22T01:12:42.551Z,9.62
2017-04-22T01:13:40.969Z,9.02
2017-04-22T01:14:39.401Z,9.62
2017-04-22T01:15:38.536Z,9.27
2017-04-22T01:16:37.057Z,9.03
2017-04-22T01:17:35.794Z,9.17
2017-04-22T01:18:34.242Z,8.57
2017-04-22T01:19:32.676Z,8.30
2017-04-22T01:20:31.225Z,7.80
2017-04-22T01:21:30.414Z,9.27
2017-04-22T01:22:29.649Z,9.27
2017-04-22T01:23:28.135Z,9.75
2017-04-22T01:24:26.555Z,9.10
2017-04-22T01:25:25.729Z,9.03
2017-04-22T01:26:24.918Z,9.67
2017-04-22T01:27:25.022Z,9.12
2017-04-22T01:28:23.463Z,8.98
2017-04-22T01:29:21.865Z,9.45
2017-04-22T01:30:20.352Z,8.37
2017-04-22T01:31:18.760Z,8.52
2017-04-22T01:32:17.190Z,9.27
2017-04-22T01:33:15.669Z,8.32
2017-04-22T01:34:14.117Z,9.28
2017-04-22T01:35:13.303Z,9.50
2017-04-22T01:36:12.463Z,9.82
2017-04-22T01:37:10.944Z,9.05
2017-04-22T01:38:09.439Z,8.75
2017-04-22T01:39:08.675Z,8.93
2017-04-22T01:40:07.169Z,8.70
2017-04-22T01:41:05.603Z,8.67
2017-04-22T01:42:04.116Z,9.03
2017-04-22T01:43:02.601Z,8.42
2017-04-22T01:44:01.073Z,10.33
2017-04-22T01:45:00.310Z,8.83
2017-04-22T01:45:58.858Z,8.82
2017-04-22T01:46:57.332Z,9.32
2017-04-22T01:47:55.862Z,9.02
2017-04-22T01:48:54.253Z,9.62
2017-04-22T01:49:53.496Z,9.15
2017-04-22T01:50:51.930Z,8.92
2017-04-22T01:51:50.391Z,8.67
2017-04-22T01:52:49.655Z,8.50
2017-04-22T01:53:48.118Z,9.30
2017-04-22T01:54:46.555Z,9.13
2017-04-22T01:55:44.973Z,9.48
2017-04-22T01:56:44.177Z,9.18
2017-04-22T01:57:43.367Z,10.28
2017-04-22T01:58:41.818Z,10.10
2017-04-22T01:59:40.343Z,11.35
2017-04-22T02:00:38.855Z,11.20
2017-04-22T02:01:37.302Z,11.62
2017-04-22T02:02:41.089Z,10.77
2017-04-22T02:03:39.567Z,10.82
2017-04-22T02:04:38.049Z,11.00
2017-04-22T02:05:36.524Z,10.47
2017-04-22T02:06:34.963Z,10.57
2017-04-22T02:07:33.578Z,11.02
2017-04-22T02:08:32.455Z,10.67
2017-04-22T02:09:30.922Z,11.45
2017-04-22T02:10:29.350Z,10.28
2017-04-22T02:11:27.802Z,10.60
2017-04-22T02:12:26.376Z,10.60
2017-04-22T02:13:24.775Z,10.32
2017-04-22T02:14:23.230Z,11.78
2017-04-22T02:15:21.676Z,9.75
2017-04-22T02:16:31.054Z,10.22
2017-04-22T02:17:29.595Z,10.25
2017-04-22T02:18:27.997Z,10.35
2017-04-22T02:19:26.394Z,10.02
2017-04-22T02:20:25.585Z,10.33
2017-04-22T02:21:24.778Z,10.13
2017-04-22T02:22:23.201Z,9.93
2017-04-22T02:23:21.663Z,10.28
2017-04-22T02:24:20.178Z,9.67
2017-04-22T02:25:19.430Z,9.78
2017-04-22T02:26:17.868Z,11.87
2017-04-22T02:28:19.772Z,19.85
2017-04-22T02:29:18.208Z,16.47
2017-04-22T02:30:16.775Z,14.15
2017-04-22T02:31:15.233Z,11.58
2017-04-22T02:32:14.384Z,11.38
2017-04-22T02:33:12.804Z,11.10
2017-04-22T02:34:11.264Z,10.73
2017-04-22T02:35:09.667Z,9.35
2017-04-22T02:36:08.063Z,10.17
2017-04-22T02:37:06.517Z,9.37
2017-04-22T02:38:05.088Z,10.30
2017-04-22T02:39:03.825Z,9.77
2017-04-22T02:40:02.267Z,9.25
2017-04-22T02:41:00.712Z,10.12
2017-04-22T02:41:59.144Z,10.10
2017-04-22T02:42:57.971Z,9.98
2017-04-22T02:43:56.376Z,10.23
2017-04-22T02:44:54.800Z,10.20
2017-04-22T02:45:53.238Z,10.78
2017-04-22T02:46:52.389Z,9.93
2017-04-22T02:47:50.801Z,10.38
2017-04-22T02:48:49.327Z,10.80
2017-04-22T02:49:47.773Z,10.58
2017-04-22T02:50:46.236Z,10.98
2017-04-22T02:51:44.689Z,10.65
2017-04-22T02:52:43.806Z,10.55
2017-04-22T02:53:42.976Z,9.77
2017-04-22T02:54:42.947Z,9.50
2017-04-22T02:55:41.423Z,10.00
2017-04-22T02:56:39.919Z,9.65
2017-04-22T02:57:38.349Z,11.00
2017-04-22T02:58:36.778Z,10.42
2017-04-22T02:59:35.196Z,10.45
2017-04-22T03:00:33.706Z,10.47
2017-04-22T03:01:32.249Z,10.12
2017-04-22T03:02:31.434Z,10.90
2017-04-22T03:03:29.902Z,10.45
2017-04-22T03:04:28.317Z,10.52
2017-04-22T03:05:26.726Z,11.07
2017-04-22T03:06:25.226Z,10.68
2017-04-22T03:07:23.697Z,11.13
2017-04-22T03:08:22.189Z,11.42
2017-04-22T03:09:20.585Z,11.03
2017-04-22T03:10:19.013Z,10.47
2017-04-22T03:11:17.451Z,10.43
2017-04-22T03:12:15.875Z,11.45
2017-04-22T03:13:14.306Z,11.25
2017-04-22T03:14:12.767Z,11.77
2017-04-22T03:15:11.215Z,10.78
2017-04-22T03:16:09.712Z,11.45
2017-04-22T03:17:08.123Z,11.08
2017-04-22T03:18:06.567Z,10.17
2017-04-22T03:19:04.978Z,9.92
2017-04-22T03:20:03.452Z,10.97
2017-04-22T03:21:01.917Z,11.60
2017-04-22T03:22:00.488Z,11.20
2017-04-22T03:22:59.236Z,11.08
2017-04-22T03:23:57.663Z,18.65
2017-04-22T03:24:56.819Z,19.17
2017-04-22T03:25:55.225Z,18.52
2017-04-22T03:26:53.664Z,18.90
2017-04-22T03:27:52.076Z,22.93
2017-04-22T03:28:50.473Z,20.00
2017-04-22T03:29:48.913Z,18.00
2017-04-22T03:30:47.361Z,15.68
2017-04-22T03:31:46.644Z,13.10
2017-04-22T03:32:45.818Z,12.55
2017-04-22T03:33:44.586Z,12.42
2017-04-22T03:34:43.015Z,13.32
2017-04-22T03:35:41.466Z,12.27
2017-04-22T03:36:39.904Z,11.47
2017-04-22T03:37:38.322Z,11.80
2017-04-22T03:38:37.053Z,11.63
2017-04-22T03:39:35.448Z,12.90
2017-04-22T03:40:34.633Z,11.85
2017-04-22T03:41:34.268Z,11.42
2017-04-22T03:42:32.691Z,11.83
2017-04-22T03:43:31.861Z,11.05
2017-04-22T03:44:30.350Z,11.23
2017-04-22T03:45:28.797Z,10.83
2017-04-22T03:46:27.226Z,12.55
2017-04-22T03:47:25.639Z,11.23
2017-04-22T03:48:24.069Z,11.62
2017-04-22T03:49:22.484Z,13.72
2017-04-22T03:50:20.907Z,11.30
2017-04-22T03:51:19.396Z,11.18
2017-04-22T03:52:17.834Z,11.58
2017-04-22T03:53:16.281Z,12.02
2017-04-22T03:54:14.698Z,10.48
2017-04-22T03:55:13.194Z,12.43
2017-04-22T03:56:11.626Z,11.70
2017-04-22T03:57:10.026Z,11.73
2017-04-22T03:58:08.464Z,13.08
2017-04-22T03:59:06.875Z,12.80
2017-04-22T04:00:05.627Z,15.18
2017-04-22T04:01:04.113Z,13.30
2017-04-22T04:02:02.601Z,12.27
2017-04-22T04:03:01.078Z,12.10
2017-04-22T04:03:59.506Z,12.35
2017-04-22T04:04:57.898Z,12.23
2017-04-22T04:05:56.315Z,10.52
2017-04-22T04:06:54.741Z,12.43
2017-04-22T04:07:53.682Z,13.12
2017-04-22T04:08:52.075Z,11.08
2017-04-22T04:09:50.551Z,12.60
2017-04-22T04:10:49.038Z,11.67
2017-04-22T04:11:47.460Z,11.48
2017-04-22T04:12:45.879Z,11.30
2017-04-22T04:13:44.344Z,10.90
2017-04-22T04:14:42.754Z,12.48
2017-04-22T04:15:41.207Z,12.38
2017-04-22T04:16:40.392Z,11.10
2017-04-22T04:17:39.609Z,12.08
2017-04-22T04:18:38.025Z,11.55
2017-04-22T04:19:36.483Z,12.02
2017-04-22T04:20:35.251Z,11.42
2017-04-22T04:21:33.675Z,12.42
2017-04-22T04:22:32.835Z,10.53
2017-04-22T04:23:31.262Z,12.20
2017-04-22T04:24:29.690Z,12.20
2017-04-22T04:25:28.132Z,11.72
2017-04-22T04:26:31.987Z,13.05
2017-04-22T04:27:30.439Z,12.15
2017-04-22T04:28:29.559Z,11.82
2017-04-22T04:29:27.959Z,12.42
2017-04-22T04:30:26.418Z,12.75
2017-04-22T04:31:24.835Z,13.48
2017-04-22T04:32:24.013Z,12.28
2017-04-22T04:33:23.231Z,13.27
2017-04-22T04:34:21.656Z,12.57
2017-04-22T04:35:20.080Z,13.13
2017-04-22T04:36:18.506Z,13.88
2017-04-22T04:37:17.669Z,14.97
2017-04-22T04:38:16.119Z,15.30
2017-04-22T04:39:14.583Z,17.68
2017-04-22T04:40:13.031Z,16.47
2017-04-22T04:41:11.490Z,15.75
2017-04-22T04:42:10.654Z,13.45
2017-04-22T04:43:09.116Z,13.23
2017-04-22T04:44:07.584Z,13.10
2017-04-22T04:45:06.033Z,11.65
2017-04-22T04:46:04.469Z,11.23
2017-04-22T04:47:02.897Z,12.17
2017-04-22T04:48:01.288Z,11.02
2017-04-22T04:49:00.417Z,11.75
2017-04-22T04:49:58.806Z,11.98
2017-04-22T04:50:57.294Z,10.87
2017-04-22T04:51:55.698Z,11.83
2017-04-22T04:52:54.100Z,11.87
2017-04-22T04:53:52.519Z,12.20
2017-04-22T04:54:51.673Z,12.85
2017-04-22T04:55:50.103Z,15.62
2017-04-22T04:56:49.250Z,15.33
2017-04-22T04:57:47.663Z,13.72
2017-04-22T04:58:46.088Z,13.68
2017-04-22T04:59:44.566Z,15.08
2017-04-22T05:00:43.029Z,14.92
2017-04-22T05:01:41.426Z,13.80
2017-04-22T05:02:39.887Z,14.58
2017-04-22T05:03:39.072Z,13.72
2017-04-22T05:04:38.588Z,14.88
2017-04-22T05:05:37.072Z,15.82
2017-04-22T05:06:35.488Z,13.98
2017-04-22T05:07:33.904Z,14.85
2017-04-22T05:08:32.369Z,14.53
2017-04-22T05:09:31.143Z,13.75
2017-04-22T05:10:29.548Z,15.48
2017-04-22T05:11:27.952Z,14.68
2017-04-22T05:12:26.367Z,16.35
2017-04-22T05:13:24.746Z,15.13
2017-04-22T05:14:23.178Z,15.57
2017-04-22T05:15:22.314Z,14.70
2017-04-22T05:16:20.722Z,15.78
2017-04-22T05:17:19.891Z,16.10
2017-04-22T05:18:18.324Z,16.83
2017-04-22T05:19:16.776Z,18.37
2017-04-22T05:20:15.227Z,16.90
2017-04-22T05:21:14.372Z,17.53
2017-04-22T05:22:12.772Z,18.00
2017-04-22T05:23:11.918Z,16.40
2017-04-22T05:24:10.346Z,14.07
2017-04-22T05:25:09.492Z,16.08
2017-04-22T05:26:08.014Z,15.73
2017-04-22T05:27:07.160Z,16.63
2017-04-22T05:28:05.526Z,16.53
2017-04-22T05:29:03.969Z,16.02
2017-04-22T05:30:02.390Z,16.90
2017-04-22T05:31:02.069Z,14.48
2017-04-22T05:32:06.921Z,14.62
2017-04-22T05:33:05.418Z,15.60
2017-04-22T05:34:03.838Z,16.00
2017-04-22T05:35:02.251Z,15.02
2017-04-22T05:36:00.684Z,14.35
2017-04-22T05:37:01.166Z,13.93
2017-04-22T05:38:02.979Z,13.55
2017-04-22T05:39:01.397Z,13.67
2017-04-22T05:40:01.301Z,13.87
2017-04-22T05:41:00.288Z,13.10
2017-04-22T05:41:59.143Z,13.98
2017-04-22T05:42:57.570Z,13.00
2017-04-22T05:43:56.046Z,12.75
2017-04-22T05:44:54.890Z,14.20
2017-04-22T05:45:53.291Z,13.37
2017-04-22T05:46:52.516Z,13.25
2017-04-22T05:47:50.955Z,13.70
2017-04-22T05:48:49.366Z,13.97
2017-04-22T05:49:47.785Z,13.75
2017-04-22T05:50:47.178Z,14.45
2017-04-22T05:51:46.356Z,13.78
2017-04-22T05:52:44.817Z,15.07
2017-04-22T05:53:43.266Z,14.82
2017-04-22T05:54:41.697Z,15.47
2017-04-22T05:55:40.176Z,16.08
2017-04-22T05:56:38.585Z,15.25
2017-04-22T05:57:37.852Z,16.95
2017-04-22T05:58:36.294Z,13.93
2017-04-22T05:59:34.713Z,14.90
2017-04-22T06:00:36.003Z,14.63
2017-04-22T06:01:34.451Z,14.58
2017-04-22T06:02:34.593Z,15.57
2017-04-22T06:03:33.586Z,15.95
2017-04-22T06:04:37.947Z,15.67
2017-04-22T06:05:37.086Z,15.93
2017-04-22T06:06:35.527Z,15.17
2017-04-22T06:07:34.602Z,16.07
2017-04-22T06:08:33.439Z,16.38
2017-04-22T06:09:31.866Z,15.83
2017-04-22T06:10:30.272Z,15.73
2017-04-22T06:11:28.708Z,15.55
2017-04-22T06:12:27.121Z,15.43
2017-04-22T06:13:25.618Z,15.12
2017-04-22T06:14:24.810Z,15.70
2017-04-22T06:15:23.968Z,16.55
2017-04-22T06:16:22.503Z,17.27
2017-04-22T06:17:20.916Z,18.50
2017-04-22T06:18:19.314Z,18.00
2017-04-22T06:19:17.786Z,17.42
2017-04-22T06:20:24.454Z,17.53
2017-04-22T06:21:22.919Z,18.25
2017-04-22T06:22:23.087Z,18.33
2017-04-22T06:23:21.512Z,20.17
2017-04-22T06:24:19.943Z,18.57
2017-04-22T06:25:18.455Z,18.62
2017-04-22T06:26:16.886Z,18.58
2017-04-22T06:27:15.303Z,19.58
2017-04-22T06:28:14.043Z,17.98
2017-04-22T06:29:12.664Z,17.92
2017-04-22T06:30:11.060Z,18.12
2017-04-22T06:31:10.499Z,18.80
2017-04-22T06:32:09.006Z,19.72
2017-04-22T06:33:07.414Z,19.45
2017-04-22T06:34:05.846Z,18.87
2017-04-22T06:35:04.357Z,18.95
2017-04-22T06:36:03.501Z,18.70
2017-04-22T06:37:01.974Z,19.90
2017-04-22T06:38:00.434Z,19.10
2017-04-22T06:38:58.875Z,18.52
2017-04-22T06:39:57.296Z,18.48
2017-04-22T06:40:55.685Z,20.43
2017-04-22T06:41:54.169Z,20.52
2017-04-22T06:42:52.598Z,20.28
2017-04-22T06:43:51.072Z,20.88
2017-04-22T06:44:50.146Z,20.52
2017-04-22T06:45:48.571Z,21.77
2017-04-22T06:46:47.802Z,19.90
2017-04-22T06:47:46.212Z,19.40
2017-04-22T06:48:44.636Z,19.22
2017-04-22T06:49:43.081Z,20.40
2017-04-22T06:50:41.483Z,19.73
2017-04-22T06:51:39.879Z,22.12
2017-04-22T06:52:38.346Z,19.05
2017-04-22T06:53:36.742Z,19.25
2017-04-22T06:54:35.162Z,21.30
2017-04-22T06:55:33.578Z,20.83
2017-04-22T06:56:32.015Z,20.93
2017-04-22T06:57:30.435Z,20.15
2017-04-22T06:58:28.946Z,18.73
2017-04-22T06:59:27.460Z,20.77
2017-04-22T07:00:26.735Z,20.43
2017-04-22T07:01:25.162Z,19.35
2017-04-22T07:02:43.702Z,18.78
2017-04-22T07:03:42.201Z,21.72
2017-04-22T07:04:40.635Z,21.93
2017-04-22T07:05:39.380Z,20.27
2017-04-22T07:06:38.607Z,19.35
2017-04-22T07:07:37.120Z,21.82
2017-04-22T07:08:35.569Z,19.52
2017-04-22T07:09:34.099Z,19.85
2017-04-22T07:10:32.536Z,24.00
2017-04-22T07:11:30.980Z,21.13
2017-04-22T07:12:29.477Z,20.77
2017-04-22T07:13:27.930Z,20.27
2017-04-22T07:14:26.401Z,20.82
2017-04-22T07:15:24.955Z,21.12
2017-04-22T07:16:23.526Z,23.42
2017-04-22T07:17:21.950Z,20.97
2017-04-22T07:18:21.101Z,19.67
2017-04-22T07:19:19.512Z,20.53
2017-04-22T07:20:18.749Z,21.90
2017-04-22T07:21:17.217Z,23.08
2017-04-22T07:22:15.668Z,21.02
2017-04-22T07:23:14.331Z,20.93
2017-04-22T07:24:12.845Z,21.48
2017-04-22T07:25:11.339Z,22.53
2017-04-22T07:26:09.739Z,21.48
2017-04-22T07:27:08.227Z,22.00
2017-04-22T07:28:06.703Z,22.98
2017-04-22T07:29:05.164Z,21.95
2017-04-22T07:30:03.580Z,23.93
2017-04-22T07:31:02.077Z,23.65
2017-04-22T07:32:01.308Z,21.88
2017-04-22T07:32:59.800Z,23.05
2017-04-22T07:33:58.362Z,22.83
2017-04-22T07:34:56.839Z,24.38
2017-04-22T07:36:03.294Z,24.22
2017-04-22T07:37:01.772Z,22.60
2017-04-22T07:38:00.309Z,22.65
2017-04-22T07:38:58.742Z,23.15
2017-04-22T07:39:57.928Z,25.05
2017-04-22T07:40:56.362Z,24.38
2017-04-22T07:41:54.819Z,21.55
2017-04-22T07:42:53.222Z,21.78
2017-04-22T07:43:51.747Z,23.53
2017-04-22T07:44:50.184Z,21.78
2017-04-22T07:45:49.703Z,23.13
2017-04-22T07:46:48.162Z,21.70
2017-04-22T07:47:46.630Z,23.17
2017-04-22T07:48:45.797Z,21.75
2017-04-22T07:49:44.302Z,23.47
2017-04-22T07:50:42.775Z,23.07
2017-04-22T07:51:41.241Z,23.40
2017-04-22T07:52:39.698Z,22.47
2017-04-22T07:53:38.076Z,24.30
2017-04-22T07:54:37.298Z,24.08
2017-04-22T07:55:35.833Z,22.18
2017-04-22T07:56:35.091Z,25.37
2017-04-22T07:57:33.587Z,22.82
2017-04-22T07:58:32.797Z,23.20
2017-04-22T07:59:31.268Z,22.12
2017-04-22T08:00:29.684Z,23.08
2017-04-22T08:01:28.112Z,23.70
2017-04-22T08:02:26.634Z,22.22
2017-04-22T08:03:25.143Z,22.85
2017-04-22T08:04:23.747Z,21.40
2017-04-22T08:05:22.199Z,24.00
2017-04-22T08:06:21.093Z,22.22
2017-04-22T08:07:19.514Z,22.95
2017-04-22T08:08:17.995Z,22.25
2017-04-22T08:09:16.728Z,22.90
2017-04-22T08:10:15.242Z,22.38
2017-04-22T08:11:24.067Z,19.83
2017-04-22T08:12:22.514Z,21.03
2017-04-22T08:13:20.904Z,21.13
2017-04-22T08:14:19.323Z,22.52
2017-04-22T08:15:17.803Z,20.75
2017-04-22T08:16:16.241Z,22.28
2017-04-22T08:17:15.396Z,21.67
2017-04-22T08:18:14.584Z,22.43
2017-04-22T08:19:13.725Z,19.88
2017-04-22T08:20:12.168Z,19.90
2017-04-22T08:21:11.214Z,21.57
2017-04-22T08:22:10.382Z,21.07
2017-04-22T08:23:08.883Z,19.88
2017-04-22T08:24:08.061Z,19.98
2017-04-22T08:25:06.551Z,19.58
2017-04-22T08:26:04.976Z,19.40
2017-04-22T08:27:03.423Z,18.85
2017-04-22T08:28:02.145Z,19.30
2017-04-22T08:29:00.866Z,18.93
2017-04-22T08:29:59.259Z,18.43
2017-04-22T08:30:57.690Z,19.50
2017-04-22T08:31:56.363Z,19.55
2017-04-22T08:32:54.788Z,18.90
2017-04-22T08:33:53.225Z,19.77
2017-04-22T08:34:52.454Z,20.90
2017-04-22T08:35:50.875Z,19.63
2017-04-22T08:36:49.622Z,20.32
2017-04-22T08:37:48.057Z,19.88
2017-04-22T08:38:46.536Z,22.00
2017-04-22T08:39:44.956Z,21.28
2017-04-22T08:40:43.475Z,20.72
2017-04-22T08:41:41.921Z,18.50
2017-04-22T08:42:40.382Z,19.32
2017-04-22T08:43:39.542Z,19.05
2017-04-22T08:44:37.944Z,20.43
2017-04-22T08:45:36.738Z,18.55
2017-04-22T08:46:35.299Z,18.12
2017-04-22T08:47:34.476Z,18.00
2017-04-22T08:48:33.031Z,17.52
2017-04-22T08:49:31.469Z,16.22
2017-04-22T08:50:30.659Z,15.37
2017-04-22T08:51:29.810Z,16.90
2017-04-22T08:52:28.276Z,17.60
2017-04-22T08:53:26.697Z,15.93
2017-04-22T08:54:25.861Z,16.47
2017-04-22T08:55:24.272Z,17.25
2017-04-22T08:56:22.702Z,17.60
2017-04-22T08:57:21.116Z,15.75
2017-04-22T08:58:19.553Z,17.13
2017-04-22T08:59:18.751Z,15.47
2017-04-22T09:00:17.233Z,17.17
2017-04-22T09:01:15.804Z,15.55
2017-04-22T09:02:14.225Z,17.02
2017-04-22T09:03:12.632Z,15.75
2017-04-22T09:04:11.791Z,15.80
2017-04-22T09:05:10.227Z,15.57
2017-04-22T09:06:08.654Z,14.68
2017-04-22T09:07:07.816Z,15.05
2017-04-22T09:08:06.279Z,14.73
2017-04-22T09:09:05.230Z,15.42
2017-04-22T09:10:03.655Z,14.85
2017-04-22T09:11:02.819Z,15.23
2017-04-22T09:12:01.235Z,13.70
2017-04-22T09:12:59.717Z,15.60
2017-04-22T09:13:58.120Z,14.87
2017-04-22T09:14:56.531Z,14.35
2017-04-22T09:15:55.724Z,14.37
2017-04-22T09:16:54.957Z,15.03
2017-04-22T09:17:53.467Z,14.07
2017-04-22T09:18:51.927Z,14.95
2017-04-22T09:19:50.368Z,15.77
2017-04-22T09:20:48.868Z,15.20
2017-04-22T09:21:47.326Z,14.13
2017-04-22T09:22:45.762Z,15.76
2017-04-22T09:23:44.227Z,15.68
2017-04-22T09:24:42.680Z,14.53
2017-04-22T09:25:41.907Z,15.18
2017-04-22T09:26:41.266Z,14.90
2017-04-22T09:27:42.208Z,14.07
2017-04-22T09:28:40.708Z,14.22
2017-04-22T09:29:39.212Z,14.42
2017-04-22T09:30:37.664Z,14.80
2017-04-22T09:31:36.080Z,14.03
2017-04-22T09:32:34.547Z,13.32
2017-04-22T09:33:40.649Z,13.48
2017-04-22T09:34:39.131Z,14.52
2017-04-22T09:35:37.569Z,13.92
2017-04-22T09:36:50.154Z,13.17
2017-04-22T09:39:26.603Z,13.08
2017-04-22T09:40:25.123Z,12.72
2017-04-22T09:41:23.597Z,12.98
2017-04-22T09:43:08.053Z,13.93
2017-04-22T09:44:06.527Z,13.30
2017-04-22T09:45:05.003Z,14.08
2017-04-22T09:46:21.159Z,13.55
2017-04-22T09:47:19.625Z,13.55
2017-04-22T09:48:18.588Z,14.25
2017-04-22T09:49:17.126Z,14.27
2017-04-22T09:50:15.638Z,14.32
2017-04-22T09:51:14.087Z,13.75
2017-04-22T09:52:12.561Z,13.30
2017-04-22T09:53:11.071Z,13.25
2017-04-22T09:54:09.549Z,14.20
2017-04-22T09:55:08.067Z,13.62
2017-04-22T09:56:06.550Z,11.77
2017-04-22T09:57:04.985Z,13.15
2017-04-22T09:58:03.498Z,13.73
2017-04-22T09:59:02.033Z,12.90
2017-04-22T10:00:01.264Z,14.32
2017-04-22T10:00:59.810Z,12.97
2017-04-22T10:01:59.113Z,13.15
2017-04-22T10:02:57.596Z,12.42
2017-04-22T10:03:56.826Z,12.12
2017-04-22T10:04:55.413Z,12.20
2017-04-22T10:05:53.875Z,11.97
2017-04-22T10:06:52.356Z,11.23
2017-04-22T10:07:51.598Z,12.35
2017-04-22T10:08:50.118Z,11.50
2017-04-22T10:09:48.614Z,10.53
2017-04-22T10:10:47.092Z,11.90
2017-04-22T10:11:45.557Z,10.78
2017-04-22T10:12:43.989Z,10.17
2017-04-22T10:13:42.450Z,11.87
2017-04-22T10:14:40.925Z,10.63
2017-04-22T10:15:39.351Z,10.80
2017-04-22T10:16:37.817Z,11.40
2017-04-22T10:17:37.068Z,10.88
2017-04-22T10:18:35.607Z,10.55
2017-04-22T10:19:34.079Z,10.85
2017-04-22T10:20:32.517Z,10.75
2017-04-22T10:21:30.984Z,10.07
2017-04-22T10:22:29.451Z,9.88
2017-04-22T10:23:27.854Z,11.08
2017-04-22T10:24:26.363Z,12.55
2017-04-22T10:25:24.848Z,10.92
2017-04-22T10:26:25.380Z,11.00
2017-04-22T10:27:23.860Z,10.57
2017-04-22T10:28:22.279Z,10.73
2017-04-22T10:29:20.790Z,9.67
2017-04-22T10:30:20.009Z,10.18
2017-04-22T10:31:18.823Z,10.38
2017-04-22T10:32:17.283Z,9.80
2017-04-22T10:33:16.123Z,9.98
2017-04-22T10:34:14.546Z,9.23
2017-04-22T10:35:12.995Z,9.58
2017-04-22T10:36:11.506Z,9.35
2017-04-22T10:37:10.960Z,9.28
2017-04-22T10:38:09.400Z,10.17
2017-04-22T10:39:08.428Z,9.60
2017-04-22T10:40:06.957Z,9.40
2017-04-22T10:41:05.451Z,10.40
2017-04-22T10:42:03.978Z,9.65
2017-04-22T10:43:03.141Z,10.17
2017-04-22T10:44:01.664Z,10.20
2017-04-22T10:45:00.126Z,10.18
2017-04-22T10:45:58.582Z,10.13
2017-04-22T10:46:57.727Z,9.88
2017-04-22T10:47:56.718Z,8.88
2017-04-22T10:48:55.254Z,9.85
2017-04-22T10:49:53.696Z,11.07
2017-04-22T10:50:52.175Z,9.80
2017-04-22T10:51:50.613Z,9.43
2017-04-22T10:52:49.104Z,9.30
2017-04-22T10:53:48.344Z,9.87
2017-04-22T10:54:46.834Z,9.87
2017-04-22T10:55:45.297Z,10.33
2017-04-22T10:56:43.786Z,9.50
2017-04-22T10:57:42.243Z,10.57
2017-04-22T10:58:40.735Z,10.80
2017-04-22T10:59:40.001Z,10.07
2017-04-22T11:00:38.534Z,9.90
2017-04-22T11:01:37.004Z,9.80
2017-04-22T11:02:35.433Z,10.35
2017-04-22T11:03:33.998Z,9.87
2017-04-22T11:04:32.442Z,10.12
2017-04-22T11:05:30.956Z,10.80
2017-04-22T11:06:30.194Z,10.83
2017-04-22T11:07:28.719Z,10.53
2017-04-22T11:08:27.141Z,9.82
2017-04-22T11:09:26.337Z,10.15
2017-04-22T11:10:24.762Z,9.67
2017-04-22T11:11:23.241Z,9.55
2017-04-22T11:12:21.653Z,11.00
2017-04-22T11:13:20.537Z,10.18
2017-04-22T11:14:25.534Z,9.65
2017-04-22T11:15:24.139Z,10.37
2017-04-22T11:16:22.588Z,10.70
2017-04-22T11:17:21.026Z,10.55
2017-04-22T11:18:19.486Z,10.68
2017-04-22T11:19:17.968Z,13.83
2017-04-22T11:20:16.410Z,15.70
2017-04-22T11:21:15.692Z,21.97
2017-04-22T11:22:14.124Z,16.28
2017-04-22T11:23:12.642Z,21.45
2017-04-22T11:24:12.498Z,16.88
2017-04-22T11:25:10.968Z,12.05
2017-04-22T11:26:09.723Z,12.22
2017-04-22T11:27:08.231Z,11.50
2017-04-22T11:28:06.764Z,10.43
2017-04-22T11:29:05.207Z,9.63
2017-04-22T11:30:04.440Z,10.98
2017-04-22T11:31:02.955Z,9.57
2017-04-22T11:32:01.505Z,8.97
2017-04-22T11:33:00.287Z,10.05
2017-04-22T11:33:58.778Z,9.53
2017-04-22T11:34:57.260Z,9.18
2017-04-22T11:35:56.459Z,9.80
2017-04-22T11:36:55.672Z,9.70
2017-04-22T11:37:54.111Z,8.85
2017-04-22T11:38:53.326Z,10.52
2017-04-22T11:39:52.129Z,9.22
2017-04-22T11:40:50.571Z,8.70
2017-04-22T11:41:48.989Z,9.13
2017-04-22T11:42:47.395Z,9.92
2017-04-22T11:43:45.880Z,10.17
2017-04-22T11:44:44.358Z,8.12
2017-04-22T11:45:42.816Z,10.40
2017-04-22T11:46:41.935Z,8.75
2017-04-22T11:47:40.388Z,8.60
2017-04-22T11:48:38.785Z,8.40
2017-04-22T11:51:46.660Z,10.17
2017-04-22T11:52:45.107Z,9.77
2017-04-22T11:53:44.269Z,10.13
2017-04-22T11:54:43.518Z,9.22
2017-04-22T11:55:42.085Z,8.83
2017-04-22T11:56:40.502Z,9.45
2017-04-22T11:57:38.967Z,10.67
2017-04-22T11:58:38.176Z,10.18
2017-04-22T11:59:37.376Z,11.10
2017-04-22T12:00:36.482Z,9.28
2017-04-22T12:01:35.431Z,9.42
2017-04-22T12:02:33.909Z,8.33
2017-04-22T12:03:32.369Z,10.05
2017-04-22T12:04:31.526Z,8.78
2017-04-22T12:05:30.018Z,8.93
2017-04-22T12:06:29.266Z,9.67
2017-04-22T12:07:28.339Z,8.70
2017-04-22T12:08:26.888Z,8.42
2017-04-22T12:09:29.913Z,7.78
2017-04-22T12:10:28.326Z,8.70
2017-04-22T12:11:27.546Z,8.80
2017-04-22T12:12:26.011Z,9.20
2017-04-22T12:13:24.464Z,7.72
2017-04-22T12:14:22.958Z,7.62
2017-04-22T12:15:21.512Z,8.65
2017-04-22T12:16:19.942Z,9.02
2017-04-22T12:17:18.398Z,9.10
2017-04-22T12:18:16.861Z,8.72
2017-04-22T12:19:15.339Z,9.42
2017-04-22T12:20:13.833Z,9.42
2017-04-22T12:21:12.337Z,9.03
2017-04-22T12:22:10.815Z,8.50
2017-04-22T12:23:09.264Z,8.60
2017-04-22T12:24:08.463Z,9.67
2017-04-22T12:25:06.865Z,9.57
2017-04-22T12:26:05.333Z,8.60
2017-04-22T12:27:03.869Z,10.52
2017-04-22T12:28:03.152Z,8.80
2017-04-22T12:29:02.422Z,9.15
2017-04-22T12:30:00.875Z,9.08
2017-04-22T12:31:00.094Z,8.33
2017-04-22T12:31:59.281Z,8.25
2017-04-22T12:32:58.889Z,8.27
2017-04-22T12:33:58.126Z,8.33
2017-04-22T12:34:56.585Z,9.03
2017-04-22T12:35:55.094Z,8.17
2017-04-22T12:36:53.542Z,8.42
2017-04-22T12:37:51.992Z,8.92
2017-04-22T12:38:50.553Z,9.00
2017-04-22T12:39:49.044Z,9.12
2017-04-22T12:40:47.509Z,9.20
2017-04-22T12:41:45.994Z,8.27
2017-04-22T12:42:44.516Z,8.30
2017-04-22T12:43:43.680Z,9.33
2017-04-22T12:44:42.083Z,8.43
2017-04-22T12:45:40.533Z,9.38
2017-04-22T12:46:39.697Z,8.78
2017-04-22T12:47:38.173Z,7.50
2017-04-22T12:48:36.599Z,8.02
2017-04-22T12:49:35.034Z,8.60